Time;durP1;ratioP1;P1;durP2;ratioP2;P2;SDS_P1;SDS_P2;PMS_P1;PMS_P2;Temp;Humidity;BMP_temperature;BMP_pressure;BME280_temperature;BME280_humidity;BME280_pressure;Samples;Min_cycle;Max_cycle;Signal;HPM_P1;HPM_P2
2023/07/22 00:01:13;;;;;;;18.40;7.85;;;;;;;14.01;100.00;101021.03;5029430;28;20045;-77
2023/07/22 00:03:40;;;;;;;20.42;9.32;;;;;;;14.06;100.00;101019.75;5030557;28;20056;-75
2023/07/22 00:06:08;;;;;;;19.65;8.38;;;;;;;14.09;100.00;101025.25;5025548;28;20053;-77
2023/07/22 00:08:39;;;;;;;20.98;8.57;;;;;;;14.12;100.00;101015.22;5031192;28;20080;-79
2023/07/22 00:11:06;;;;;;;19.55;8.65;;;;;;;14.12;100.00;101027.19;5028863;28;20122;-77
2023/07/22 00:13:33;;;;;;;17.63;8.60;;;;;;;14.11;100.00;101027.63;5012102;28;20053;-77
2023/07/22 00:16:03;;;;;;;17.80;8.32;;;;;;;14.13;100.00;101019.56;5027156;28;20239;-76
2023/07/22 00:18:30;;;;;;;18.48;8.50;;;;;;;14.14;100.00;101009.94;5011614;28;20101;-76
2023/07/22 00:21:00;;;;;;;19.33;8.50;;;;;;;14.17;100.00;101018.28;5027337;28;20549;-77
2023/07/22 00:23:27;;;;;;;20.05;8.57;;;;;;;14.20;100.00;101013.81;5028993;28;20049;-76
2023/07/22 00:26:01;;;;;;;22.67;8.98;;;;;;;14.25;100.00;101002.13;5022109;28;20092;-73
2023/07/22 00:28:28;;;;;;;18.25;8.20;;;;;;;14.27;100.00;100999.66;5024742;28;20124;-76
2023/07/22 00:30:54;;;;;;;20.90;7.97;;;;;;;14.29;100.00;101002.81;5027168;28;20072;-75
2023/07/22 00:33:21;;;;;;;16.75;8.23;;;;;;;14.30;100.00;101001.59;5030273;28;20536;-76
2023/07/22 00:35:51;;;;;;;21.23;9.50;;;;;;;14.27;100.00;100999.66;5030534;28;20046;-76
2023/07/22 00:38:19;;;;;;;23.58;10.93;;;;;;;14.16;100.00;101002.72;5023399;28;20048;-76
2023/07/22 00:40:46;;;;;;;20.38;9.45;;;;;;;14.06;100.00;101002.97;5049444;28;20131;-78
2023/07/22 00:43:12;;;;;;;24.58;10.10;;;;;;;14.05;100.00;100999.38;5034376;28;20482;-77
2023/07/22 00:45:39;;;;;;;21.75;10.88;;;;;;;13.97;100.00;101005.56;5041983;28;20136;-78
2023/07/22 00:48:07;;;;;;;22.30;10.15;;;;;;;13.92;100.00;101006.09;5044514;28;20062;-75
2023/07/22 00:50:38;;;;;;;21.65;9.80;;;;;;;13.88;100.00;100997.75;5040124;28;20048;-78
2023/07/22 00:53:05;;;;;;;21.73;10.07;;;;;;;13.82;100.00;101005.09;5047388;28;20063;-75
2023/07/22 00:55:34;;;;;;;22.15;9.93;;;;;;;13.78;100.00;100993.19;5040271;28;20037;-77
2023/07/22 00:58:01;;;;;;;20.65;10.05;;;;;;;13.71;100.00;100995.38;5033751;28;20049;-74
2023/07/22 01:00:27;;;;;;;23.88;11.00;;;;;;;13.73;100.00;100990.13;5044391;28;20123;-75
2023/07/22 01:02:54;;;;;;;20.45;9.90;;;;;;;13.71;100.00;100987.00;5049844;28;20095;-74
2023/07/22 01:05:21;;;;;;;21.95;9.20;;;;;;;13.79;100.00;100980.03;5048835;28;20045;-76
2023/07/22 01:07:47;;;;;;;22.92;10.15;;;;;;;13.83;100.00;100975.94;5041313;28;20534;-75
2023/07/22 01:10:15;;;;;;;20.45;9.98;;;;;;;13.82;100.00;100979.16;5049402;28;20144;-75
2023/07/22 01:12:45;;;;;;;21.70;9.73;;;;;;;13.75;100.00;100970.94;5048444;28;20056;-76
2023/07/22 01:15:15;;;;;;;21.80;10.13;;;;;;;13.77;100.00;100974.09;5038647;28;20469;-75
2023/07/22 01:17:45;;;;;;;20.95;9.70;;;;;;;13.74;100.00;100974.97;5037912;28;20052;-76
2023/07/22 01:20:18;;;;;;;19.55;8.80;;;;;;;13.66;100.00;100970.72;5040547;28;20152;-75
2023/07/22 01:22:52;;;;;;;19.83;9.35;;;;;;;13.59;100.00;100973.69;5048649;28;20080;-75
2023/07/22 01:25:26;;;;;;;20.60;9.13;;;;;;;13.56;100.00;100977.34;5035194;28;20102;-76
2023/07/22 01:27:56;;;;;;;23.05;9.43;;;;;;;13.46;100.00;100969.97;5039898;28;20052;-76
2023/07/22 01:30:22;;;;;;;23.15;9.80;;;;;;;13.49;100.00;100969.91;5045114;28;20147;-78
2023/07/22 01:32:50;;;;;;;20.13;9.20;;;;;;;13.46;100.00;100964.38;5044740;28;20539;-76
2023/07/22 01:35:19;;;;;;;19.40;9.07;;;;;;;13.51;100.00;100973.06;5042825;28;20439;-75
2023/07/22 01:37:45;;;;;;;20.38;9.85;;;;;;;13.54;100.00;100977.75;5045685;28;20049;-76
2023/07/22 01:40:12;;;;;;;20.20;9.50;;;;;;;13.53;100.00;100983.78;5032786;28;20523;-76
2023/07/22 01:42:40;;;;;;;22.27;9.90;;;;;;;13.51;100.00;100973.06;5036884;28;20053;-75
2023/07/22 01:45:10;;;;;;;21.25;10.38;;;;;;;13.54;100.00;100971.41;5046465;28;20041;-75
2023/07/22 01:47:45;;;;;;;22.38;10.63;;;;;;;13.52;100.00;100976.63;5043564;28;20128;-75
2023/07/22 01:50:12;;;;;;;19.50;9.68;;;;;;;13.49;100.00;100974.69;5039727;28;20048;-75
2023/07/22 01:52:39;;;;;;;20.45;10.35;;;;;;;13.53;100.00;100969.81;5047579;28;20247;-75
2023/07/22 01:55:08;;;;;;;23.92;10.27;;;;;;;13.50;100.00;100973.50;5035949;28;20044;-77
2023/07/22 01:57:35;;;;;;;19.17;8.82;;;;;;;13.47;100.00;100966.75;5041327;28;20060;-77
2023/07/22 02:00:02;;;;;;;22.77;10.13;;;;;;;13.47;100.00;100963.19;5047927;28;20504;-74
2023/07/22 02:02:29;;;;;;;21.20;9.77;;;;;;;13.50;100.00;100967.91;5027314;28;20048;-71
2023/07/22 02:04:55;;;;;;;22.70;10.57;;;;;;;13.53;100.00;100964.22;5047649;28;20536;-75
2023/07/22 02:07:26;;;;;;;19.45;9.60;;;;;;;13.48;100.00;100968.34;5048753;28;20044;-75
2023/07/22 02:09:53;;;;;;;21.38;10.50;;;;;;;13.51;100.00;100964.69;5048598;28;20076;-75
2023/07/22 02:12:20;;;;;;;22.33;9.30;;;;;;;13.48;100.00;100973.91;5048959;28;20052;-73
2023/07/22 02:14:47;;;;;;;21.77;9.13;;;;;;;13.50;100.00;100967.91;5045892;28;20069;-75
2023/07/22 02:17:13;;;;;;;22.90;9.65;;;;;;;13.53;100.00;100959.44;5048438;28;20131;-76
2023/07/22 02:19:40;;;;;;;19.48;10.05;;;;;;;13.48;100.00;100950.78;5040668;28;20057;-76
2023/07/22 02:22:07;;;;;;;20.83;9.63;;;;;;;13.49;100.00;100958.72;5036483;28;20057;-75
2023/07/22 02:24:33;;;;;;;20.92;9.30;;;;;;;13.50;100.00;100963.09;5024718;28;20092;-76
2023/07/22 02:27:00;;;;;;;21.42;9.68;;;;;;;13.53;100.00;100956.66;5047047;28;20127;-73
2023/07/22 02:29:26;;;;;;;21.90;9.57;;;;;;;13.57;100.00;100956.59;5047434;28;20076;-74
2023/07/22 02:31:53;;;;;;;22.30;9.85;;;;;;;13.60;100.00;100955.72;5024897;28;20053;-76
2023/07/22 02:34:20;;;;;;;21.42;9.68;;;;;;;13.52;100.00;100951.50;5046274;28;20096;-76
2023/07/22 02:36:46;;;;;;;20.67;9.27;;;;;;;13.51;100.00;100959.09;5047247;28;20052;-75
2023/07/22 02:39:13;;;;;;;20.95;9.18;;;;;;;13.44;100.00;100953.63;5042543;28;20056;-78
2023/07/22 02:41:39;;;;;;;21.10;9.77;;;;;;;13.48;100.00;100957.16;5026536;28;20486;-75
2023/07/22 02:44:06;;;;;;;27.08;10.35;;;;;;;13.45;100.00;100951.63;5030317;28;20536;-76
2023/07/22 02:46:33;;;;;;;21.52;11.07;;;;;;;13.47;100.00;100957.59;5018984;28;20077;-73
2023/07/22 02:48:59;;;;;;;20.65;9.98;;;;;;;13.45;100.00;100957.22;5045913;28;20515;-75
2023/07/22 02:51:26;;;;;;;20.55;9.82;;;;;;;13.43;100.00;100959.69;5033315;28;20394;-76
2023/07/22 02:53:52;;;;;;;22.55;9.32;;;;;;;13.46;100.00;100964.38;5032965;28;20045;-75
2023/07/22 02:56:19;;;;;;;18.98;8.60;;;;;;;13.53;100.00;100956.66;5022824;28;20049;-75
2023/07/22 02:58:45;;;;;;;20.15;9.45;;;;;;;13.53;100.00;100961.44;5026891;28;20169;-77
2023/07/22 03:01:12;;;;;;;18.95;8.52;;;;;;;13.42;100.00;100958.06;5044752;28;20069;-76
2023/07/22 03:03:39;;;;;;;20.20;9.55;;;;;;;13.50;100.00;100962.31;5032597;28;20119;-75
2023/07/22 03:06:07;;;;;;;21.38;9.27;;;;;;;13.55;100.00;100967.38;5045992;28;20045;-74
2023/07/22 03:08:34;;;;;;;20.45;9.65;;;;;;;13.53;100.00;100965.03;5030924;28;20049;-75
2023/07/22 03:11:01;;;;;;;20.30;9.30;;;;;;;13.55;100.00;100973.78;5047653;28;20057;-74
2023/07/22 03:13:29;;;;;;;19.73;9.23;;;;;;;13.56;100.00;100972.53;5042162;28;20145;-76
2023/07/22 03:15:57;;;;;;;18.10;8.57;;;;;;;13.58;100.00;100970.13;5032092;28;20049;-76
2023/07/22 03:18:24;;;;;;;19.83;8.98;;;;;;;13.56;100.00;100964.16;5036050;28;20145;-75
2023/07/22 03:20:51;;;;;;;25.15;9.95;;;;;;;13.62;100.00;100967.22;5035138;28;20052;-77
2023/07/22 03:23:19;;;;;;;21.58;10.27;;;;;;;13.65;100.00;100972.75;5028649;28;20053;-75
2023/07/22 03:25:46;;;;;;;20.80;9.75;;;;;;;13.60;100.00;100964.88;5022974;28;20079;-75
2023/07/22 03:28:13;;;;;;;19.80;9.98;;;;;;;13.59;100.00;100968.09;5035732;28;20088;-75
2023/07/22 03:30:39;;;;;;;21.98;9.93;;;;;;;13.64;100.00;100970.38;5025426;28;20475;-75
2023/07/22 03:33:06;;;;;;;19.50;8.70;;;;;;;13.67;100.00;100977.91;5052754;28;20204;-78
2023/07/22 03:35:33;;;;;;;19.70;9.15;;;;;;;13.69;100.00;100970.66;5049628;28;20486;-75
2023/07/22 03:38:00;;;;;;;23.33;9.60;;;;;;;13.75;100.00;100976.53;5050103;28;20467;-75
2023/07/22 03:40:28;;;;;;;24.05;9.80;;;;;;;13.73;100.00;100974.16;5045330;28;20056;-75
2023/07/22 03:42:55;;;;;;;21.50;10.38;;;;;;;13.73;100.00;100973.38;5051190;28;20539;-76
2023/07/22 03:45:22;;;;;;;20.48;9.55;;;;;;;13.73;100.00;100976.16;5053760;28;20052;-72
2023/07/22 03:47:54;;;;;;;19.13;8.00;;;;;;;13.72;100.00;100977.38;5050619;28;20524;-76
2023/07/22 03:50:21;;;;;;;17.70;7.40;;;;;;;13.64;100.00;100975.97;5035929;28;20131;-76
2023/07/22 03:52:47;;;;;;;19.98;8.18;;;;;;;13.77;100.00;100979.69;5039663;28;20072;-75
2023/07/22 03:55:14;;;;;;;20.05;8.68;;;;;;;13.82;100.00;100974.38;5039060;28;20124;-76
2023/07/22 03:57:40;;;;;;;21.05;8.02;;;;;;;13.84;100.00;100971.13;5051379;28;20068;-74
2023/07/22 04:00:10;;;;;;;20.45;9.00;;;;;;;13.82;100.00;100976.38;5048767;28;20056;-76
2023/07/22 04:02:37;;;;;;;18.48;7.68;;;;;;;13.80;100.00;100979.59;5041826;28;20045;-76
2023/07/22 04:05:04;;;;;;;21.20;8.40;;;;;;;13.83;100.00;100978.72;5030018;28;20049;-76
2023/07/22 04:07:31;;;;;;;16.10;6.50;;;;;;;13.85;100.00;100975.50;5051121;28;20094;-76
2023/07/22 04:09:57;;;;;;;21.83;8.82;;;;;;;13.91;100.00;100979.38;5048042;28;20122;-76
2023/07/22 04:12:24;;;;;;;20.85;8.30;;;;;;;13.84;100.00;100979.53;5051788;28;20445;-75
2023/07/22 04:14:50;;;;;;;19.65;8.20;;;;;;;13.89;100.00;100981.78;5046357;28;20041;-74
2023/07/22 04:17:17;;;;;;;15.70;6.32;;;;;;;13.87;100.00;100976.63;5031916;28;20041;-75
2023/07/22 04:19:44;;;;;;;17.10;7.43;;;;;;;13.92;100.00;100983.72;5035598;28;20148;-76
2023/07/22 04:22:10;;;;;;;16.75;7.38;;;;;;;13.96;100.00;100981.63;5034721;28;20045;-76
2023/07/22 04:24:37;;;;;;;16.25;6.63;;;;;;;13.95;100.00;100986.44;5042832;28;20106;-75
2023/07/22 04:27:04;;;;;;;22.25;8.38;;;;;;;13.97;100.00;100984.00;5024843;28;20052;-76
2023/07/22 04:29:31;;;;;;;19.17;7.70;;;;;;;13.96;100.00;100978.84;5032035;28;20520;-74
2023/07/22 04:32:01;;;;;;;20.00;6.53;;;;;;;13.92;100.00;100981.72;5040224;28;20056;-72
2023/07/22 04:34:31;;;;;;;15.90;7.07;;;;;;;14.00;100.00;100983.13;5037247;28;20095;-75
2023/07/22 04:36:58;;;;;;;21.17;7.38;;;;;;;14.01;100.00;100986.72;5043983;28;20086;-76
2023/07/22 04:39:25;;;;;;;19.10;7.70;;;;;;;14.06;100.00;100988.97;5023806;28;20417;-75
2023/07/22 04:41:52;;;;;;;17.95;6.90;;;;;;;14.07;100.00;100990.56;5029108;28;20057;-73
2023/07/22 04:44:19;;;;;;;18.50;8.35;;;;;;;14.06;100.00;100984.19;5030840;28;20049;-77
2023/07/22 04:46:45;;;;;;;19.38;5.97;;;;;;;14.01;100.00;100981.13;5012596;28;20096;-74
2023/07/22 04:49:13;;;;;;;17.83;7.93;;;;;;;14.02;100.00;100991.09;5029998;28;20045;-76
2023/07/22 04:51:39;;;;;;;17.77;6.25;;;;;;;14.02;100.00;100989.09;5011176;28;20049;-76
2023/07/22 04:54:06;;;;;;;15.88;6.78;;;;;;;14.08;100.00;100983.75;5029844;28;20053;-76
2023/07/22 04:56:32;;;;;;;19.58;7.72;;;;;;;14.10;100.00;100982.09;5025292;28;20085;-75
2023/07/22 04:58:59;;;;;;;16.77;7.47;;;;;;;14.06;100.00;100983.41;5016305;28;20049;-76
2023/07/22 05:01:25;;;;;;;18.38;8.23;;;;;;;14.20;100.00;100991.44;5005655;28;20100;-76
2023/07/22 05:03:54;;;;;;;16.73;6.53;;;;;;;14.16;100.00;100985.16;5004061;28;20056;-75
2023/07/22 05:06:21;;;;;;;12.55;4.65;;;;;;;14.06;100.00;100988.97;5023413;28;20588;-76
2023/07/22 05:08:48;;;;;;;20.02;7.18;;;;;;;14.09;100.00;100996.50;5012818;28;20068;-75
2023/07/22 05:11:14;;;;;;;20.58;7.72;;;;;;;14.19;100.00;100990.69;5020831;28;20623;-75
2023/07/22 05:13:41;;;;;;;23.65;8.57;;;;;;;14.22;100.00;100984.19;5012600;28;20504;-76
2023/07/22 05:16:08;;;;;;;18.83;8.25;;;;;;;14.27;100.00;100989.28;5018505;28;20452;-76
2023/07/22 05:18:34;;;;;;;14.02;4.65;;;;;;;14.07;100.00;100996.13;5022160;28;20058;-77
2023/07/22 05:21:01;;;;;;;19.85;7.38;;;;;;;14.21;100.00;100987.44;5019431;28;20080;-75
2023/07/22 05:23:27;;;;;;;17.55;7.68;;;;;;;14.15;100.00;100987.16;5028626;28;20072;-76
2023/07/22 05:25:54;;;;;;;19.48;8.50;;;;;;;14.23;100.00;100990.56;5025491;28;20154;-76
2023/07/22 05:28:20;;;;;;;19.02;7.68;;;;;;;14.26;100.00;100989.72;5019091;28;20573;-75
2023/07/22 05:30:50;;;;;;;19.40;8.45;;;;;;;14.25;100.00;100991.72;5017182;28;20056;-76
2023/07/22 05:33:17;;;;;;;6.88;2.90;;;;;;;14.30;100.00;100988.41;5028820;28;20054;-77
2023/07/22 05:35:43;;;;;;;16.70;7.22;;;;;;;14.45;100.00;100995.25;5016379;28;20049;-77
2023/07/22 05:38:13;;;;;;;7.07;2.60;;;;;;;14.32;100.00;100999.91;5031795;28;20061;-77
2023/07/22 05:40:40;;;;;;;17.83;7.47;;;;;;;14.46;100.00;100996.84;5047473;28;20072;-79
2023/07/22 05:43:07;;;;;;;12.98;4.10;;;;;;;14.40;100.00;100997.75;5045752;28;20084;-76
2023/07/22 05:45:33;;;;;;;17.45;7.53;;;;;;;14.42;100.00;100996.13;5036999;28;20053;-76
2023/07/22 05:48:00;;;;;;;17.48;7.47;;;;;;;14.40;100.00;101004.16;5043291;28;20056;-77
2023/07/22 05:50:26;;;;;;;17.83;7.55;;;;;;;14.46;100.00;100998.84;5031863;28;20041;-75
2023/07/22 05:52:53;;;;;;;14.85;6.32;;;;;;;14.50;100.00;101005.13;5044881;28;20061;-77
2023/07/22 05:55:19;;;;;;;18.85;7.68;;;;;;;14.46;100.00;101004.44;5043311;28;20131;-75
2023/07/22 05:57:46;;;;;;;16.85;7.40;;;;;;;14.55;100.00;101008.19;5039557;28;20053;-75
2023/07/22 06:00:13;;;;;;;18.15;7.28;;;;;;;14.49;100.00;101009.16;5044023;28;20083;-75
2023/07/22 06:02:40;;;;;;;11.45;5.15;;;;;;;14.54;100.00;101014.22;5045880;28;20061;-76
2023/07/22 06:05:07;;;;;;;22.38;6.00;;;;;;;14.57;100.00;101011.34;5043860;28;20053;-76
2023/07/22 06:07:33;;;;;;;18.48;6.35;;;;;;;14.70;100.00;101009.41;5037436;28;20056;-76
2023/07/22 06:10:00;;;;;;;20.17;8.13;;;;;;;14.82;100.00;101010.72;5043907;28;20114;-75
2023/07/22 06:12:26;;;;;;;17.98;6.65;;;;;;;14.79;100.00;101006.75;5039772;28;20040;-77
2023/07/22 06:14:53;;;;;;;19.45;8.07;;;;;;;14.93;100.00;101011.22;5043079;28;20146;-75
2023/07/22 06:17:20;;;;;;;15.77;6.90;;;;;;;14.93;100.00;101009.19;5043717;28;20045;-74
2023/07/22 06:19:47;;;;;;;18.40;6.15;;;;;;;14.86;100.00;101000.97;5026916;28;20466;-76
2023/07/22 06:22:14;;;;;;;8.32;3.78;;;;;;;14.80;100.00;101008.34;5047428;28;20126;-75
2023/07/22 06:24:40;;;;;;;23.65;8.27;;;;;;;14.94;100.00;101009.97;5044346;28;20141;-74
2023/07/22 06:27:07;;;;;;;16.42;6.95;;;;;;;14.98;100.00;101005.06;5046428;28;20096;-75
2023/07/22 06:29:34;;;;;;;15.98;5.57;;;;;;;15.02;100.00;101011.34;5048311;28;20064;-75
2023/07/22 06:32:00;;;;;;;8.30;3.00;;;;;;;14.87;100.00;101004.56;5046264;28;20423;-74
2023/07/22 06:34:27;;;;;;;16.25;5.38;;;;;;;14.97;100.00;101009.09;5041582;28;20056;-73
2023/07/22 06:36:54;;;;;;;13.90;5.75;;;;;;;15.07;100.00;100999.63;5039642;28;20045;-76
2023/07/22 06:39:20;;;;;;;15.98;4.97;;;;;;;15.13;100.00;101002.69;5045437;28;20045;-76
2023/07/22 06:41:47;;;;;;;20.08;7.45;;;;;;;15.30;100.00;100998.59;5047098;28;20488;-76
2023/07/22 06:44:13;;;;;;;14.85;5.28;;;;;;;15.31;100.00;101006.56;5045215;28;20129;-79
2023/07/22 06:46:40;;;;;;;20.58;8.30;;;;;;;15.48;100.00;101005.28;5045318;28;20133;-74
2023/07/22 06:49:07;;;;;;;19.33;7.78;;;;;;;15.55;100.00;101002.28;5030287;28;20045;-74
2023/07/22 06:51:34;;;;;;;11.73;5.38;;;;;;;15.51;100.00;101001.59;5039395;28;20428;-79
2023/07/22 06:54:02;;;;;;;5.75;2.95;;;;;;;15.49;100.00;101003.28;5029607;28;20342;-76
2023/07/22 06:56:29;;;;;;;11.80;4.38;;;;;;;15.59;100.00;100994.56;5048129;28;20037;-75
2023/07/22 06:58:56;;;;;;;20.85;8.75;;;;;;;15.84;100.00;100997.41;5037839;28;20139;-76
2023/07/22 07:01:23;;;;;;;21.45;8.05;;;;;;;15.85;100.00;100996.19;5046558;28;20068;-75
2023/07/22 07:03:50;;;;;;;15.70;5.57;;;;;;;15.98;100.00;100991.38;5048494;28;20052;-76
2023/07/22 07:06:17;;;;;;;13.82;5.63;;;;;;;15.79;100.00;100980.34;5038134;28;20132;-75
2023/07/22 07:08:43;;;;;;;22.80;8.27;;;;;;;16.00;100.00;100985.31;5043576;28;20076;-76
2023/07/22 07:11:10;;;;;;;18.55;7.68;;;;;;;16.06;100.00;100986.31;5040915;28;20080;-80
2023/07/22 07:13:37;;;;;;;9.77;4.40;;;;;;;16.09;100.00;100985.41;5051607;28;20107;-72
2023/07/22 07:16:20;;;;;;;19.83;9.00;;;;;;;16.34;100.00;100986.22;5017866;28;20073;-72
2023/07/22 07:18:47;;;;;;;23.75;8.77;;;;;;;16.24;100.00;100981.69;5043589;28;20103;-73
2023/07/22 07:21:13;;;;;;;10.48;3.92;;;;;;;16.14;100.00;100980.03;5044138;28;20567;-76
2023/07/22 07:23:40;;;;;;;19.35;8.75;;;;;;;16.31;100.00;100981.50;5036224;28;20086;-73
2023/07/22 07:26:06;;;;;;;8.48;3.47;;;;;;;16.23;100.00;100985.75;5052962;28;20115;-76
2023/07/22 07:28:33;;;;;;;21.20;7.95;;;;;;;16.37;100.00;100982.50;5052075;28;21045;-76
2023/07/22 07:30:59;;;;;;;19.83;8.63;;;;;;;16.49;100.00;100986.53;5052246;28;20057;-74
2023/07/22 07:33:26;;;;;;;21.42;8.27;;;;;;;16.59;100.00;100980.56;5034967;28;20053;-75
2023/07/22 07:35:53;;;;;;;13.82;5.47;;;;;;;16.67;100.00;100987.50;5052753;28;20071;-77
2023/07/22 07:38:19;;;;;;;19.05;7.57;;;;;;;16.73;100.00;100987.72;5047137;28;20090;-77
2023/07/22 07:40:46;;;;;;;21.85;8.50;;;;;;;16.78;100.00;100992.78;5051598;28;20049;-75
2023/07/22 07:43:12;;;;;;;17.60;7.25;;;;;;;16.83;100.00;100992.97;5035180;28;20049;-74
2023/07/22 07:45:39;;;;;;;8.60;3.20;;;;;;;16.87;100.00;101002.06;5046249;28;20506;-79
2023/07/22 07:48:06;;;;;;;16.30;5.55;;;;;;;16.69;100.00;100999.09;5044203;28;20044;-75
2023/07/22 07:50:32;;;;;;;20.50;7.65;;;;;;;17.06;100.00;100981.34;5052621;28;20595;-74
2023/07/22 07:52:59;;;;;;;16.45;5.60;;;;;;;17.07;100.00;100998.94;5050627;28;20512;-76
2023/07/22 07:55:25;;;;;;;13.07;5.38;;;;;;;17.13;100.00;100991.56;5048961;28;20076;-76
2023/07/22 07:57:52;;;;;;;14.65;6.13;;;;;;;17.15;100.00;100989.84;5050144;28;20045;-74
2023/07/22 08:00:20;;;;;;;9.10;3.90;;;;;;;17.04;100.00;100995.03;5051528;28;20103;-75
2023/07/22 08:02:47;;;;;;;15.88;5.97;;;;;;;17.05;100.00;100990.22;5042917;28;20052;-76
2023/07/22 08:05:13;;;;;;;16.85;5.97;;;;;;;17.31;100.00;100986.84;5045949;28;20051;-73
2023/07/22 08:07:40;;;;;;;16.52;6.05;;;;;;;17.19;100.00;100998.16;5050740;28;20049;-75
2023/07/22 08:10:09;;;;;;;11.10;4.07;;;;;;;17.43;100.00;101008.47;5048155;28;20817;-76
2023/07/22 08:12:37;;;;;;;8.65;3.63;;;;;;;17.47;100.00;100993.50;5048562;28;20049;-79
2023/07/22 08:15:04;;;;;;;10.65;4.45;;;;;;;17.50;100.00;100992.59;5045939;28;20072;-79
2023/07/22 08:17:30;;;;;;;7.80;3.15;;;;;;;17.62;100.00;101003.75;5046840;28;20103;-76
2023/07/22 08:19:57;;;;;;;11.82;4.50;;;;;;;17.62;100.00;100992.50;5047497;28;20061;-77
2023/07/22 08:22:23;;;;;;;13.48;5.50;;;;;;;17.81;100.00;100996.22;5047437;28;20103;-78
2023/07/22 08:24:50;;;;;;;12.55;4.65;;;;;;;17.69;100.00;100995.09;5044339;28;20114;-79
2023/07/22 08:27:16;;;;;;;13.88;5.40;;;;;;;17.77;100.00;101004.81;5042594;28;20045;-77
2023/07/22 08:29:43;;;;;;;12.57;3.97;;;;;;;17.84;100.00;101009.34;5042869;28;20117;-76
2023/07/22 08:32:10;;;;;;;18.58;6.80;;;;;;;17.80;100.00;101005.91;5027130;28;20122;-76
2023/07/22 08:34:36;;;;;;;12.88;5.05;;;;;;;17.94;100.00;101005.38;5048946;28;20069;-77
2023/07/22 08:37:03;;;;;;;12.43;5.28;;;;;;;17.88;100.00;101007.19;5041732;28;20079;-78
2023/07/22 08:39:29;;;;;;;9.00;3.13;;;;;;;17.87;100.00;101000.00;5046549;28;20523;-75
2023/07/22 08:41:57;;;;;;;17.15;7.13;;;;;;;18.03;100.00;100997.78;5044768;28;20048;-77
2023/07/22 08:44:27;;;;;;;13.02;4.57;;;;;;;17.85;100.00;100999.69;5047237;28;20045;-73
2023/07/22 08:46:57;;;;;;;13.13;5.65;;;;;;;17.82;100.00;100995.00;5046920;28;20456;-75
2023/07/22 08:49:24;;;;;;;9.40;3.42;;;;;;;17.83;100.00;100993.75;5047674;28;20049;-78
2023/07/22 08:51:53;;;;;;;8.88;4.57;;;;;;;17.90;100.00;101001.91;5049294;28;20084;-76
2023/07/22 08:54:21;;;;;;;11.73;4.57;;;;;;;18.05;100.00;101000.91;5048269;28;20500;-75
2023/07/22 08:56:47;;;;;;;10.43;4.28;;;;;;;18.31;100.00;101004.28;5025612;28;20049;-75
2023/07/22 08:59:15;;;;;;;14.10;4.68;;;;;;;18.27;100.00;100995.22;5044212;28;20128;-74
2023/07/22 09:01:42;;;;;;;10.57;3.28;;;;;;;18.22;100.00;100993.78;5045139;28;20119;-78
2023/07/22 09:04:08;;;;;;;17.58;5.88;;;;;;;18.47;100.00;101004.03;5041713;28;20072;-76
2023/07/22 09:06:36;;;;;;;12.32;5.65;;;;;;;18.55;100.00;100997.66;5049006;28;20053;-74
2023/07/22 09:09:07;;;;;;;16.58;5.15;;;;;;;18.60;100.00;100999.84;5047123;28;20425;-74
2023/07/22 09:11:35;;;;;;;13.18;4.85;;;;;;;18.60;100.00;101004.72;5038305;28;20045;-74
2023/07/22 09:14:04;;;;;;;7.57;3.08;;;;;;;18.56;100.00;101001.25;5047924;28;20053;-77
2023/07/22 09:16:31;;;;;;;8.93;3.75;;;;;;;18.48;100.00;101002.78;5046549;28;20045;-75
2023/07/22 09:18:59;;;;;;;4.55;2.13;;;;;;;18.62;100.00;101002.19;5048046;28;20060;-75
2023/07/22 09:21:27;;;;;;;9.68;2.58;;;;;;;18.48;100.00;100999.97;5027979;28;20054;-73
2023/07/22 09:23:54;;;;;;;12.70;5.40;;;;;;;18.79;100.00;101000.69;5027678;28;20060;-75
2023/07/22 09:26:21;;;;;;;14.55;5.53;;;;;;;18.74;100.00;101002.09;5038861;28;20049;-75
2023/07/22 09:28:57;;;;;;;9.40;3.17;;;;;;;18.53;100.00;100994.50;5039308;28;20114;-78
2023/07/22 09:31:30;;;;;;;10.05;3.35;;;;;;;18.54;100.00;101003.75;5038294;28;20041;-76
2023/07/22 09:34:09;;;;;;;13.10;5.13;;;;;;;18.74;100.00;101004.13;5038076;28;20048;-76
2023/07/22 09:36:56;;;;;;;7.90;3.80;;;;;;;18.56;100.00;100993.56;5038931;28;20134;-79
2023/07/22 09:39:24;;;;;;;6.93;3.10;;;;;;;18.88;100.00;101009.97;5048525;28;20057;-75
2023/07/22 09:41:52;;;;;;;6.07;2.17;;;;;;;18.74;100.00;101002.09;5039583;28;20060;-77
2023/07/22 09:44:19;;;;;;;9.93;3.63;;;;;;;18.85;100.00;100999.63;5045627;28;20071;-76
2023/07/22 09:46:49;;;;;;;5.43;2.22;;;;;;;18.83;100.00;101007.75;5048216;28;20056;-76
2023/07/22 09:49:18;;;;;;;15.05;5.57;;;;;;;18.86;100.00;101006.03;5047714;28;20098;-79
2023/07/22 09:51:45;;;;;;;9.30;3.63;;;;;;;18.77;100.00;100994.75;5052346;28;20128;-76
2023/07/22 09:54:30;;;;;;;10.90;4.65;;;;;;;18.66;100.00;100994.38;5044844;28;20041;-77
2023/07/22 09:56:57;;;;;;;5.43;2.10;;;;;;;18.88;100.00;100995.06;5046047;28;20041;-75
2023/07/22 09:59:28;;;;;;;6.25;2.33;;;;;;;18.96;100.00;100987.88;5040105;28;20042;-75
2023/07/22 10:01:56;;;;;;;14.68;6.22;;;;;;;19.21;100.00;100987.59;5045040;28;20102;-77
2023/07/22 10:04:28;;;;;;;5.97;2.60;;;;;;;19.12;100.00;100987.56;5046915;28;20059;-77
2023/07/22 10:06:54;;;;;;;8.13;2.67;;;;;;;19.11;100.00;100997.28;5040416;28;20099;-77
2023/07/22 10:09:26;;;;;;;13.18;4.45;;;;;;;19.14;100.00;100991.47;5043142;28;20110;-78
2023/07/22 10:11:53;;;;;;;7.80;3.00;;;;;;;19.38;100.00;100986.00;5046029;28;20049;-75
2023/07/22 10:14:20;;;;;;;10.63;3.28;;;;;;;19.34;100.00;100976.94;5036669;28;20053;-78
2023/07/22 10:16:46;;;;;;;8.40;2.53;;;;;;;19.38;100.00;100980.38;5035665;28;20070;-76
2023/07/22 10:19:14;;;;;;;12.48;4.70;;;;;;;19.57;100.00;100985.53;5043417;28;20132;-73
2023/07/22 10:21:41;;;;;;;11.38;3.08;;;;;;;19.67;100.00;100981.44;5035120;28;20574;-77
2023/07/22 10:24:09;;;;;;;4.60;2.25;;;;;;;19.70;100.00;101010.72;5044481;28;20052;-80
2023/07/22 10:26:35;;;;;;;11.00;2.55;;;;;;;19.57;100.00;100982.69;5042939;28;20056;-77
2023/07/22 10:29:08;;;;;;;5.15;2.50;;;;;;;19.53;100.00;100986.94;5045692;28;20611;-75
2023/07/22 10:31:34;;;;;;;6.28;2.28;;;;;;;19.56;100.00;100989.59;5041824;28;20079;-76
2023/07/22 10:34:01;;;;;;;7.07;2.75;;;;;;;19.38;100.00;100983.94;5045583;28;20080;-75
2023/07/22 10:36:29;;;;;;;10.77;4.35;;;;;;;19.52;100.00;100991.03;5044993;28;20048;-77
2023/07/22 10:38:57;;;;;;;9.30;3.47;;;;;;;19.58;100.00;100981.44;5039836;28;20065;-77
2023/07/22 10:41:28;;;;;;;6.10;2.42;;;;;;;19.59;100.00;100983.03;5049003;28;20048;-75
2023/07/22 10:43:57;;;;;;;11.77;4.75;;;;;;;19.87;100.00;100966.03;5047741;28;20448;-76
2023/07/22 10:46:34;;;;;;;12.52;4.20;;;;;;;;;;5047400;28;20053;-76
2023/07/22 10:49:16;;;;;;;5.43;2.25;;;;;;;20.20;100.00;100966.81;5039950;28;20478;-74
2023/07/22 10:51:50;;;;;;;8.18;3.97;;;;;;;20.27;100.00;100964.44;5045973;28;20083;-75
2023/07/22 10:54:36;;;;;;;23.63;3.65;;;;;;;20.28;100.00;100953.94;5022244;28;20111;-75
2023/07/22 10:57:04;;;;;;;8.75;3.08;;;;;;;20.39;100.00;100948.53;5044899;28;20535;-75
2023/07/22 10:59:35;;;;;;;7.22;2.75;;;;;;;20.41;100.00;100971.41;5039426;28;21897;-76
2023/07/22 11:02:07;;;;;;;8.98;3.50;;;;;;;20.23;100.00;100955.38;5028963;28;20056;-74
2023/07/22 11:04:35;;;;;;;16.27;3.10;;;;;;;20.42;100.00;100954.00;5048415;28;20060;-76
2023/07/22 11:07:30;;;;;;;7.97;3.33;;;;;;;20.39;100.00;100954.97;5049476;28;20041;-77
2023/07/22 11:09:57;;;;;;;16.48;5.55;;;;;;;20.45;100.00;100946.63;5048981;28;20053;-77
2023/07/22 11:12:25;;;;;;;12.27;3.72;;;;;;;20.48;100.00;100937.97;5036636;28;20103;-76